sensor_id;sensor_type;location;lat;lon;timestamp;pressure;altitude;pressure_sealevel;temperature;humidity
9525;BME280;15940;48.734;9.112;2023-04-10T00:01:23;97143.63;;;4.57;72.38
9525;BME280;15940;48.734;9.112;2023-04-10T00:03:50;97150.19;;;4.56;73.17
9525;BME280;15940;48.734;9.112;2023-04-10T00:06:17;97148.03;;;4.51;71.94
9525;BME280;15940;48.734;9.112;2023-04-10T00:08:44;97141.06;;;4.41;72.83
9525;BME280;15940;48.734;9.112;2023-04-10T00:11:11;97136.16;;;4.27;72.67
9525;BME280;15940;48.734;9.112;2023-04-10T00:13:38;97133.13;;;4.38;73.17
9525;BME280;15940;48.734;9.112;2023-04-10T00:16:06;97138.16;;;4.48;74.00
9525;BME280;15940;48.734;9.112;2023-04-10T00:18:34;97134.94;;;4.41;71.82
9525;BME280;15940;48.734;9.112;2023-04-10T00:21:02;97133.88;;;4.38;74.21
9525;BME280;15940;48.734;9.112;2023-04-10T00:23:29;97129.91;;;4.30;72.82
9525;BME280;15940;48.734;9.112;2023-04-10T00:25:56;97131.06;;;4.42;73.67
9525;BME280;15940;48.734;9.112;2023-04-10T00:28:23;97135.81;;;4.25;72.62
9525;BME280;15940;48.734;9.112;2023-04-10T00:30:50;97140.00;;;4.39;74.18
9525;BME280;15940;48.734;9.112;2023-04-10T00:33:17;97134.41;;;4.46;73.48
9525;BME280;15940;48.734;9.112;2023-04-10T00:35:45;97127.88;;;4.47;72.96
9525;BME280;15940;48.734;9.112;2023-04-10T00:38:12;97126.59;;;4.39;72.02
9525;BME280;15940;48.734;9.112;2023-04-10T00:40:39;97121.13;;;4.29;72.94
9525;BME280;15940;48.734;9.112;2023-04-10T00:43:06;97127.03;;;4.37;73.34
9525;BME280;15940;48.734;9.112;2023-04-10T00:45:33;97122.06;;;4.36;73.67
9525;BME280;15940;48.734;9.112;2023-04-10T00:48:00;97117.38;;;4.27;73.29
9525;BME280;15940;48.734;9.112;2023-04-10T00:50:27;97118.03;;;4.18;74.77
9525;BME280;15940;48.734;9.112;2023-04-10T00:52:55;97113.84;;;4.17;73.92
9525;BME280;15940;48.734;9.112;2023-04-10T00:55:22;97120.34;;;4.16;73.65
9525;BME280;15940;48.734;9.112;2023-04-10T00:57:49;97112.41;;;4.25;75.18
9525;BME280;15940;48.734;9.112;2023-04-10T01:00:18;97111.69;;;4.12;73.25
9525;BME280;15940;48.734;9.112;2023-04-10T01:02:45;97109.63;;;4.16;75.33
9525;BME280;15940;48.734;9.112;2023-04-10T01:05:12;97112.09;;;4.23;74.74
9525;BME280;15940;48.734;9.112;2023-04-10T01:08:03;97112.31;;;4.16;74.12
9525;BME280;15940;48.734;9.112;2023-04-10T01:10:40;97105.81;;;4.17;74.13
9525;BME280;15940;48.734;9.112;2023-04-10T01:13:17;97116.84;;;4.19;74.69
9525;BME280;15940;48.734;9.112;2023-04-10T01:15:57;97122.19;;;4.19;74.93
9525;BME280;15940;48.734;9.112;2023-04-10T01:18:32;97126.91;;;4.15;73.58
9525;BME280;15940;48.734;9.112;2023-04-10T01:21:01;97118.22;;;4.24;75.08
9525;BME280;15940;48.734;9.112;2023-04-10T01:24:30;97125.41;;;4.27;74.40
9525;BME280;15940;48.734;9.112;2023-04-10T01:27:11;97117.69;;;4.29;74.67
9525;BME280;15940;48.734;9.112;2023-04-10T01:29:47;97117.88;;;4.35;74.59
9525;BME280;15940;48.734;9.112;2023-04-10T01:32:20;97127.22;;;4.30;73.34
9525;BME280;15940;48.734;9.112;2023-04-10T01:34:52;97124.00;;;4.22;74.32
9525;BME280;15940;48.734;9.112;2023-04-10T01:37:22;97119.53;;;4.19;74.21
9525;BME280;15940;48.734;9.112;2023-04-10T01:40:00;97112.88;;;4.11;73.23
9525;BME280;15940;48.734;9.112;2023-04-10T01:42:31;97109.53;;;4.07;74.37
9525;BME280;15940;48.734;9.112;2023-04-10T01:45:03;97112.88;;;3.98;74.52
9525;BME280;15940;48.734;9.112;2023-04-10T01:47:32;97112.75;;;3.89;74.36
9525;BME280;15940;48.734;9.112;2023-04-10T01:50:00;97103.19;;;3.88;75.19
9525;BME280;15940;48.734;9.112;2023-04-10T01:52:28;97106.53;;;3.92;75.23
9525;BME280;15940;48.734;9.112;2023-04-10T01:54:57;97102.25;;;3.82;74.24
9525;BME280;15940;48.734;9.112;2023-04-10T01:57:25;97096.03;;;3.85;74.86
9525;BME280;15940;48.734;9.112;2023-04-10T01:59:55;97103.00;;;3.95;75.40
9525;BME280;15940;48.734;9.112;2023-04-10T02:02:23;97097.00;;;4.04;75.81
9525;BME280;15940;48.734;9.112;2023-04-10T02:04:50;97096.56;;;4.06;74.64
9525;BME280;15940;48.734;9.112;2023-04-10T02:07:22;97099.47;;;4.11;74.74
9525;BME280;15940;48.734;9.112;2023-04-10T02:10:00;97093.44;;;4.07;75.83
9525;BME280;15940;48.734;9.112;2023-04-10T02:12:32;97093.44;;;3.94;74.60
9525;BME280;15940;48.734;9.112;2023-04-10T02:15:03;97087.97;;;3.85;74.65
9525;BME280;15940;48.734;9.112;2023-04-10T02:17:32;97092.72;;;3.94;75.67
9525;BME280;15940;48.734;9.112;2023-04-10T02:20:01;97098.38;;;3.83;75.64
9525;BME280;15940;48.734;9.112;2023-04-10T02:22:28;97096.66;;;3.77;75.00
9525;BME280;15940;48.734;9.112;2023-04-10T02:24:56;97099.00;;;3.62;75.15
9525;BME280;15940;48.734;9.112;2023-04-10T02:27:29;97096.94;;;3.53;76.18
9525;BME280;15940;48.734;9.112;2023-04-10T02:29:56;97099.19;;;3.55;77.33
9525;BME280;15940;48.734;9.112;2023-04-10T02:32:23;97099.44;;;3.73;76.96
9525;BME280;15940;48.734;9.112;2023-04-10T02:34:52;97096.84;;;3.69;76.22
9525;BME280;15940;48.734;9.112;2023-04-10T02:37:19;97097.84;;;3.76;75.91
9525;BME280;15940;48.734;9.112;2023-04-10T02:39:46;97091.19;;;3.67;75.88
9525;BME280;15940;48.734;9.112;2023-04-10T02:42:13;97098.66;;;3.60;76.30
9525;BME280;15940;48.734;9.112;2023-04-10T02:44:41;97105.63;;;3.57;76.42
9525;BME280;15940;48.734;9.112;2023-04-10T02:47:08;97100.59;;;3.59;76.40
9525;BME280;15940;48.734;9.112;2023-04-10T02:49:35;97106.50;;;3.54;76.98
9525;BME280;15940;48.734;9.112;2023-04-10T02:52:04;97104.88;;;3.57;76.81
9525;BME280;15940;48.734;9.112;2023-04-10T02:54:31;97105.81;;;3.50;76.28
9525;BME280;15940;48.734;9.112;2023-04-10T02:56:59;97111.66;;;3.61;76.31
9525;BME280;15940;48.734;9.112;2023-04-10T02:59:26;97114.34;;;3.74;76.31
9525;BME280;15940;48.734;9.112;2023-04-10T03:01:53;97114.22;;;3.78;76.14
9525;BME280;15940;48.734;9.112;2023-04-10T03:04:20;97120.03;;;3.76;75.83
9525;BME280;15940;48.734;9.112;2023-04-10T03:06:47;97122.88;;;3.56;74.72
9525;BME280;15940;48.734;9.112;2023-04-10T03:09:15;97111.31;;;3.59;75.55
9525;BME280;15940;48.734;9.112;2023-04-10T03:11:42;97110.56;;;3.59;76.08
9525;BME280;15940;48.734;9.112;2023-04-10T03:14:09;97105.53;;;3.61;76.61
9525;BME280;15940;48.734;9.112;2023-04-10T03:16:36;97105.00;;;3.53;75.70
9525;BME280;15940;48.734;9.112;2023-04-10T03:19:03;97099.94;;;3.42;75.79
9525;BME280;15940;48.734;9.112;2023-04-10T03:21:30;97099.72;;;3.50;77.31
9525;BME280;15940;48.734;9.112;2023-04-10T03:23:57;97090.19;;;3.49;77.38
9525;BME280;15940;48.734;9.112;2023-04-10T03:26:25;97098.19;;;3.36;76.15
9525;BME280;15940;48.734;9.112;2023-04-10T03:28:52;97092.72;;;3.39;77.21
9525;BME280;15940;48.734;9.112;2023-04-10T03:31:19;97090.91;;;3.36;77.10
9525;BME280;15940;48.734;9.112;2023-04-10T03:33:46;97085.81;;;3.42;77.40
9525;BME280;15940;48.734;9.112;2023-04-10T03:36:13;97090.06;;;3.39;77.79
9525;BME280;15940;48.734;9.112;2023-04-10T03:38:40;97079.03;;;3.37;76.92
9525;BME280;15940;48.734;9.112;2023-04-10T03:41:07;97081.59;;;3.41;77.64
9525;BME280;15940;48.734;9.112;2023-04-10T03:43:35;97072.19;;;3.49;77.12
9525;BME280;15940;48.734;9.112;2023-04-10T03:46:02;97070.84;;;3.70;76.10
9525;BME280;15940;48.734;9.112;2023-04-10T03:48:29;97072.53;;;3.51;76.58
9525;BME280;15940;48.734;9.112;2023-04-10T03:50:57;97068.97;;;3.41;76.62
9525;BME280;15940;48.734;9.112;2023-04-10T03:53:24;97063.44;;;3.20;76.92
9525;BME280;15940;48.734;9.112;2023-04-10T03:55:51;97070.97;;;3.25;76.76
9525;BME280;15940;48.734;9.112;2023-04-10T03:58:18;97061.88;;;3.35;77.40
9525;BME280;15940;48.734;9.112;2023-04-10T04:00:46;97063.72;;;3.38;77.26
9525;BME280;15940;48.734;9.112;2023-04-10T04:03:13;97064.34;;;3.29;77.08
9525;BME280;15940;48.734;9.112;2023-04-10T04:05:40;97057.47;;;3.28;77.59
9525;BME280;15940;48.734;9.112;2023-04-10T04:08:07;97057.03;;;3.17;77.52
9525;BME280;15940;48.734;9.112;2023-04-10T04:10:34;97060.97;;;3.12;78.27
9525;BME280;15940;48.734;9.112;2023-04-10T04:13:00;97055.53;;;3.16;78.72
9525;BME280;15940;48.734;9.112;2023-04-10T04:15:27;97056.91;;;3.21;78.23
9525;BME280;15940;48.734;9.112;2023-04-10T04:17:56;97053.72;;;3.26;78.22
9525;BME280;15940;48.734;9.112;2023-04-10T04:20:23;97056.50;;;3.22;77.61
9525;BME280;15940;48.734;9.112;2023-04-10T04:22:50;97053.94;;;3.31;78.00
9525;BME280;15940;48.734;9.112;2023-04-10T04:25:17;97053.31;;;3.27;77.93
9525;BME280;15940;48.734;9.112;2023-04-10T04:27:44;97051.19;;;3.35;77.58
9525;BME280;15940;48.734;9.112;2023-04-10T04:30:11;97054.94;;;3.37;77.49
9525;BME280;15940;48.734;9.112;2023-04-10T04:32:38;97055.91;;;3.56;77.13
9525;BME280;15940;48.734;9.112;2023-04-10T04:35:08;97054.84;;;3.54;76.09
9525;BME280;15940;48.734;9.112;2023-04-10T04:37:35;97061.16;;;3.60;75.43
9525;BME280;15940;48.734;9.112;2023-04-10T04:40:03;97063.44;;;3.61;75.26
9525;BME280;15940;48.734;9.112;2023-04-10T04:42:30;97061.91;;;3.48;76.23
9525;BME280;15940;48.734;9.112;2023-04-10T04:44:57;97056.00;;;3.40;75.73
9525;BME280;15940;48.734;9.112;2023-04-10T04:47:24;97063.19;;;3.43;77.48
9525;BME280;15940;48.734;9.112;2023-04-10T04:49:50;97060.28;;;3.50;76.59
9525;BME280;15940;48.734;9.112;2023-04-10T04:52:19;97051.31;;;3.44;77.24
9525;BME280;15940;48.734;9.112;2023-04-10T04:54:46;97047.00;;;3.47;77.45
9525;BME280;15940;48.734;9.112;2023-04-10T04:57:12;97047.13;;;3.43;76.14
9525;BME280;15940;48.734;9.112;2023-04-10T04:59:39;97051.19;;;3.35;76.21
9525;BME280;15940;48.734;9.112;2023-04-10T05:02:06;97052.25;;;3.37;77.53
9525;BME280;15940;48.734;9.112;2023-04-10T05:04:33;97057.84;;;3.43;76.84
9525;BME280;15940;48.734;9.112;2023-04-10T05:07:00;97058.78;;;3.49;76.12
9525;BME280;15940;48.734;9.112;2023-04-10T05:09:28;97055.59;;;3.54;76.55
9525;BME280;15940;48.734;9.112;2023-04-10T05:11:55;97061.38;;;3.78;75.89
9525;BME280;15940;48.734;9.112;2023-04-10T05:14:23;97050.59;;;3.82;75.07
9525;BME280;15940;48.734;9.112;2023-04-10T05:16:50;97054.84;;;4.05;74.55
9525;BME280;15940;48.734;9.112;2023-04-10T05:19:17;97057.00;;;4.10;74.23
9525;BME280;15940;48.734;9.112;2023-04-10T05:21:43;97056.13;;;4.13;74.12
9525;BME280;15940;48.734;9.112;2023-04-10T05:24:10;97057.63;;;4.14;73.95
9525;BME280;15940;48.734;9.112;2023-04-10T05:26:39;97058.91;;;4.22;74.19
9525;BME280;15940;48.734;9.112;2023-04-10T05:29:07;97073.38;;;4.24;73.71
9525;BME280;15940;48.734;9.112;2023-04-10T05:31:34;97067.41;;;4.20;72.53
9525;BME280;15940;48.734;9.112;2023-04-10T05:34:01;97070.59;;;4.15;72.98
9525;BME280;15940;48.734;9.112;2023-04-10T05:36:28;97065.16;;;4.19;73.37
9525;BME280;15940;48.734;9.112;2023-04-10T05:38:55;97070.91;;;4.30;73.71
9525;BME280;15940;48.734;9.112;2023-04-10T05:41:21;97057.50;;;4.30;73.58
9525;BME280;15940;48.734;9.112;2023-04-10T05:43:50;97064.25;;;4.35;72.52
9525;BME280;15940;48.734;9.112;2023-04-10T05:46:17;97064.38;;;4.31;72.42
9525;BME280;15940;48.734;9.112;2023-04-10T05:48:44;97067.53;;;4.51;73.51
9525;BME280;15940;48.734;9.112;2023-04-10T05:51:10;97064.00;;;4.54;72.90
9525;BME280;15940;48.734;9.112;2023-04-10T05:53:37;97063.06;;;4.48;71.53
9525;BME280;15940;48.734;9.112;2023-04-10T05:56:05;97066.66;;;4.54;72.94
9525;BME280;15940;48.734;9.112;2023-04-10T05:58:32;97065.50;;;4.55;72.03
9525;BME280;15940;48.734;9.112;2023-04-10T06:01:01;97069.34;;;4.67;71.51
9525;BME280;15940;48.734;9.112;2023-04-10T06:03:28;97063.31;;;4.63;71.62
9525;BME280;15940;48.734;9.112;2023-04-10T06:05:55;97066.53;;;4.71;72.08
9525;BME280;15940;48.734;9.112;2023-04-10T06:08:22;97070.25;;;4.73;71.05
9525;BME280;15940;48.734;9.112;2023-04-10T06:10:49;97068.66;;;4.76;70.79
9525;BME280;15940;48.734;9.112;2023-04-10T06:13:16;97080.22;;;4.85;69.71
9525;BME280;15940;48.734;9.112;2023-04-10T06:15:43;97071.91;;;4.93;69.92
9525;BME280;15940;48.734;9.112;2023-04-10T06:18:11;97079.56;;;4.94;69.76
9525;BME280;15940;48.734;9.112;2023-04-10T06:20:38;97073.31;;;4.97;70.21
9525;BME280;15940;48.734;9.112;2023-04-10T06:23:05;97073.50;;;5.03;71.18
9525;BME280;15940;48.734;9.112;2023-04-10T06:25:32;97073.56;;;5.12;68.49
9525;BME280;15940;48.734;9.112;2023-04-10T06:27:59;97074.25;;;5.25;68.30
9525;BME280;15940;48.734;9.112;2023-04-10T06:30:26;97074.56;;;5.27;67.96
9525;BME280;15940;48.734;9.112;2023-04-10T06:32:53;97067.00;;;5.35;67.49
9525;BME280;15940;48.734;9.112;2023-04-10T06:35:21;97062.25;;;5.39;67.37
9525;BME280;15940;48.734;9.112;2023-04-10T06:37:48;97065.31;;;5.50;67.55
9525;BME280;15940;48.734;9.112;2023-04-10T06:40:15;97066.22;;;5.56;66.98
9525;BME280;15940;48.734;9.112;2023-04-10T06:42:42;97065.06;;;5.66;66.56
9525;BME280;15940;48.734;9.112;2023-04-10T06:45:10;97065.59;;;5.83;67.78
9525;BME280;15940;48.734;9.112;2023-04-10T06:47:37;97062.72;;;5.99;66.38
9525;BME280;15940;48.734;9.112;2023-04-10T06:50:05;97060.13;;;6.27;64.95
9525;BME280;15940;48.734;9.112;2023-04-10T06:52:33;97060.28;;;6.51;64.56
9525;BME280;15940;48.734;9.112;2023-04-10T06:55:00;97058.38;;;6.70;62.89
9525;BME280;15940;48.734;9.112;2023-04-10T06:57:27;97061.06;;;6.97;63.06
9525;BME280;15940;48.734;9.112;2023-04-10T06:59:54;97055.50;;;7.19;62.08
9525;BME280;15940;48.734;9.112;2023-04-10T07:02:21;97059.41;;;7.27;60.53
9525;BME280;15940;48.734;9.112;2023-04-10T07:04:48;97055.19;;;7.44;61.06
9525;BME280;15940;48.734;9.112;2023-04-10T07:07:16;97052.25;;;7.66;60.38
9525;BME280;15940;48.734;9.112;2023-04-10T07:09:45;97050.56;;;7.87;58.83
9525;BME280;15940;48.734;9.112;2023-04-10T07:12:12;97046.19;;;8.23;58.78
9525;BME280;15940;48.734;9.112;2023-04-10T07:14:39;97045.19;;;8.68;58.86
9525;BME280;15940;48.734;9.112;2023-04-10T07:17:07;97050.50;;;9.16;56.70
9525;BME280;15940;48.734;9.112;2023-04-10T07:19:34;97047.25;;;9.41;55.75
9525;BME280;15940;48.734;9.112;2023-04-10T07:22:02;97038.47;;;9.76;53.21
9525;BME280;15940;48.734;9.112;2023-04-10T07:24:30;97044.31;;;9.89;53.69
9525;BME280;15940;48.734;9.112;2023-04-10T07:26:58;97045.16;;;9.95;52.72
9525;BME280;15940;48.734;9.112;2023-04-10T07:29:26;97052.59;;;10.00;52.37
9525;BME280;15940;48.734;9.112;2023-04-10T07:31:53;97052.28;;;10.13;50.14
9525;BME280;15940;48.734;9.112;2023-04-10T07:34:20;97055.69;;;10.43;50.51
9525;BME280;15940;48.734;9.112;2023-04-10T07:36:48;97052.38;;;10.74;49.80
9525;BME280;15940;48.734;9.112;2023-04-10T07:39:15;97044.72;;;10.73;49.08
9525;BME280;15940;48.734;9.112;2023-04-10T07:41:43;97057.44;;;10.87;50.04
9525;BME280;15940;48.734;9.112;2023-04-10T07:44:11;97051.94;;;11.02;49.12
9525;BME280;15940;48.734;9.112;2023-04-10T07:46:39;97044.94;;;11.15;48.49
9525;BME280;15940;48.734;9.112;2023-04-10T07:49:06;97054.69;;;11.07;48.46
9525;BME280;15940;48.734;9.112;2023-04-10T07:51:33;97048.72;;;11.24;47.55
9525;BME280;15940;48.734;9.112;2023-04-10T07:54:01;97049.13;;;11.42;48.21
9525;BME280;15940;48.734;9.112;2023-04-10T07:56:28;97057.19;;;11.63;47.03
9525;BME280;15940;48.734;9.112;2023-04-10T07:58:59;97046.19;;;12.04;46.40
9525;BME280;15940;48.734;9.112;2023-04-10T08:01:28;97047.50;;;12.14;46.96
9525;BME280;15940;48.734;9.112;2023-04-10T08:03:55;97059.94;;;12.32;44.90
9525;BME280;15940;48.734;9.112;2023-04-10T08:06:21;97046.06;;;12.24;45.32
9525;BME280;15940;48.734;9.112;2023-04-10T08:08:48;97055.06;;;12.41;46.54
9525;BME280;15940;48.734;9.112;2023-04-10T08:11:25;97047.47;;;12.56;44.76
9525;BME280;15940;48.734;9.112;2023-04-10T08:13:53;97046.84;;;12.84;43.26
9525;BME280;15940;48.734;9.112;2023-04-10T08:16:23;97040.06;;;13.39;43.64
9525;BME280;15940;48.734;9.112;2023-04-10T08:18:52;97035.38;;;13.51;42.01
9525;BME280;15940;48.734;9.112;2023-04-10T08:21:21;97038.59;;;13.55;41.63
9525;BME280;15940;48.734;9.112;2023-04-10T08:23:49;97041.34;;;13.66;43.34
9525;BME280;15940;48.734;9.112;2023-04-10T08:26:17;97041.28;;;13.99;41.50
9525;BME280;15940;48.734;9.112;2023-04-10T08:28:47;97039.34;;;13.72;41.47
9525;BME280;15940;48.734;9.112;2023-04-10T08:31:15;97041.81;;;13.59;42.50
9525;BME280;15940;48.734;9.112;2023-04-10T08:33:42;97042.25;;;14.24;41.74
9525;BME280;15940;48.734;9.112;2023-04-10T08:36:11;97039.50;;;14.36;40.33
9525;BME280;15940;48.734;9.112;2023-04-10T08:38:40;97044.25;;;14.24;40.93
9525;BME280;15940;48.734;9.112;2023-04-10T08:41:09;97043.97;;;14.33;39.43
9525;BME280;15940;48.734;9.112;2023-04-10T08:43:36;97038.75;;;14.52;40.84
9525;BME280;15940;48.734;9.112;2023-04-10T08:46:04;97040.25;;;14.42;40.61
9525;BME280;15940;48.734;9.112;2023-04-10T08:48:37;97032.81;;;14.37;38.92
9525;BME280;15940;48.734;9.112;2023-04-10T08:51:06;97031.56;;;14.49;40.52
9525;BME280;15940;48.734;9.112;2023-04-10T08:53:40;97026.38;;;14.51;40.32
9525;BME280;15940;48.734;9.112;2023-04-10T08:56:12;97034.78;;;14.42;40.40
9525;BME280;15940;48.734;9.112;2023-04-10T08:58:40;97033.31;;;14.35;39.43
9525;BME280;15940;48.734;9.112;2023-04-10T09:01:08;97030.38;;;14.16;40.59
9525;BME280;15940;48.734;9.112;2023-04-10T09:03:36;97024.06;;;14.66;42.52
9525;BME280;15940;48.734;9.112;2023-04-10T09:06:04;97010.06;;;14.92;40.57
9525;BME280;15940;48.734;9.112;2023-04-10T09:08:32;97017.72;;;14.94;40.03
9525;BME280;15940;48.734;9.112;2023-04-10T09:11:00;97033.44;;;14.76;39.51
9525;BME280;15940;48.734;9.112;2023-04-10T09:13:39;97031.66;;;14.84;41.09
9525;BME280;15940;48.734;9.112;2023-04-10T09:16:08;97035.56;;;14.95;39.57
9525;BME280;15940;48.734;9.112;2023-04-10T09:18:44;97025.69;;;14.92;39.78
9525;BME280;15940;48.734;9.112;2023-04-10T09:21:15;97019.00;;;14.87;38.88
9525;BME280;15940;48.734;9.112;2023-04-10T09:23:44;97016.28;;;15.28;38.44
9525;BME280;15940;48.734;9.112;2023-04-10T09:26:26;97021.94;;;15.71;37.65
9525;BME280;15940;48.734;9.112;2023-04-10T09:28:59;97013.56;;;15.94;36.97
9525;BME280;15940;48.734;9.112;2023-04-10T09:31:32;97010.56;;;15.67;35.90
9525;BME280;15940;48.734;9.112;2023-04-10T09:34:11;97010.28;;;15.71;36.77
9525;BME280;15940;48.734;9.112;2023-04-10T09:36:39;97000.94;;;16.15;38.03
9525;BME280;15940;48.734;9.112;2023-04-10T09:39:08;96990.44;;;16.44;36.08
9525;BME280;15940;48.734;9.112;2023-04-10T09:41:49;96991.47;;;16.41;34.41
9525;BME280;15940;48.734;9.112;2023-04-10T09:44:18;96982.66;;;16.05;37.13
9525;BME280;15940;48.734;9.112;2023-04-10T09:46:53;96981.00;;;15.96;36.20
9525;BME280;15940;48.734;9.112;2023-04-10T09:49:20;96972.84;;;16.39;36.98
9525;BME280;15940;48.734;9.112;2023-04-10T09:51:47;96976.84;;;16.14;36.47
9525;BME280;15940;48.734;9.112;2023-04-10T09:54:14;96960.75;;;16.29;36.67
9525;BME280;15940;48.734;9.112;2023-04-10T09:56:44;96962.66;;;16.59;36.95
9525;BME280;15940;48.734;9.112;2023-04-10T09:59:13;96955.13;;;16.83;34.10
9525;BME280;15940;48.734;9.112;2023-04-10T10:01:42;96960.78;;;16.67;34.70
9525;BME280;15940;48.734;9.112;2023-04-10T10:04:09;96954.09;;;16.68;35.16
9525;BME280;15940;48.734;9.112;2023-04-10T10:06:40;96949.50;;;16.76;35.03
9525;BME280;15940;48.734;9.112;2023-04-10T10:09:07;96943.91;;;16.68;33.90
9525;BME280;15940;48.734;9.112;2023-04-10T10:11:35;96944.72;;;16.82;33.01
9525;BME280;15940;48.734;9.112;2023-04-10T10:14:04;96939.59;;;17.24;34.27
9525;BME280;15940;48.734;9.112;2023-04-10T10:16:44;96939.66;;;17.37;34.43
9525;BME280;15940;48.734;9.112;2023-04-10T10:19:19;96937.16;;;17.52;34.23
9525;BME280;15940;48.734;9.112;2023-04-10T10:21:49;96924.72;;;17.38;34.05
9525;BME280;15940;48.734;9.112;2023-04-10T10:24:19;96923.56;;;17.47;33.73
9525;BME280;15940;48.734;9.112;2023-04-10T10:26:46;96923.13;;;17.75;34.65
9525;BME280;15940;48.734;9.112;2023-04-10T10:29:15;96918.22;;;17.67;32.08
9525;BME280;15940;48.734;9.112;2023-04-10T10:31:45;96907.72;;;17.98;34.23
9525;BME280;15940;48.734;9.112;2023-04-10T10:34:14;96898.41;;;17.61;31.97
9525;BME280;15940;48.734;9.112;2023-04-10T10:36:41;96901.00;;;17.73;32.70
9525;BME280;15940;48.734;9.112;2023-04-10T10:39:28;96895.63;;;17.93;31.61
9525;BME280;15940;48.734;9.112;2023-04-10T10:42:05;96899.50;;;18.11;31.78
9525;BME280;15940;48.734;9.112;2023-04-10T10:44:41;96898.44;;;18.14;31.96
9525;BME280;15940;48.734;9.112;2023-04-10T10:47:19;96893.06;;;18.22;30.73
9525;BME280;15940;48.734;9.112;2023-04-10T10:49:52;96886.91;;;18.42;31.32
9525;BME280;15940;48.734;9.112;2023-04-10T10:52:43;96878.19;;;18.65;29.95
9525;BME280;15940;48.734;9.112;2023-04-10T10:55:31;96881.66;;;18.18;30.38
9525;BME280;15940;48.734;9.112;2023-04-10T10:58:04;96879.59;;;17.84;30.81
9525;BME280;15940;48.734;9.112;2023-04-10T11:01:06;96878.09;;;17.70;30.44
9525;BME280;15940;48.734;9.112;2023-04-10T11:03:35;96869.66;;;17.68;29.36
9525;BME280;15940;48.734;9.112;2023-04-10T11:06:05;96876.34;;;17.73;30.74
9525;BME280;15940;48.734;9.112;2023-04-10T11:08:41;96869.78;;;17.89;31.89
9525;BME280;15940;48.734;9.112;2023-04-10T11:11:13;96872.09;;;17.98;30.03
9525;BME280;15940;48.734;9.112;2023-04-10T11:16:41;96863.72;;;18.30;29.91
9525;BME280;15940;48.734;9.112;2023-04-10T11:19:10;96848.34;;;18.61;29.95
9525;BME280;15940;48.734;9.112;2023-04-10T11:22:05;96857.34;;;18.82;30.08
9525;BME280;15940;48.734;9.112;2023-04-10T11:24:56;96849.78;;;18.41;28.45
9525;BME280;15940;48.734;9.112;2023-04-10T11:27:50;96848.72;;;18.78;27.90
9525;BME280;15940;48.734;9.112;2023-04-10T11:30:32;96856.03;;;18.97;26.29
9525;BME280;15940;48.734;9.112;2023-04-10T11:33:01;96838.06;;;18.75;27.75
9525;BME280;15940;48.734;9.112;2023-04-10T11:35:31;96838.75;;;18.89;29.34
9525;BME280;15940;48.734;9.112;2023-04-10T11:38:15;96832.88;;;19.13;27.91
9525;BME280;15940;48.734;9.112;2023-04-10T11:40:54;96839.50;;;19.38;28.24
9525;BME280;15940;48.734;9.112;2023-04-10T11:43:21;96841.06;;;19.26;29.57
9525;BME280;15940;48.734;9.112;2023-04-10T11:45:48;96839.38;;;19.23;28.25
9525;BME280;15940;48.734;9.112;2023-04-10T11:48:15;96836.13;;;19.53;28.74
9525;BME280;15940;48.734;9.112;2023-04-10T11:50:44;96825.06;;;19.17;26.12
9525;BME280;15940;48.734;9.112;2023-04-10T11:53:18;96832.09;;;19.54;30.12
9525;BME280;15940;48.734;9.112;2023-04-10T11:55:46;96827.97;;;19.40;26.48
9525;BME280;15940;48.734;9.112;2023-04-10T11:58:23;96823.44;;;19.22;28.60
9525;BME280;15940;48.734;9.112;2023-04-10T12:01:02;96812.75;;;19.10;23.45
9525;BME280;15940;48.734;9.112;2023-04-10T12:03:37;96807.94;;;19.32;24.81
9525;BME280;15940;48.734;9.112;2023-04-10T12:06:09;96798.97;;;19.31;26.29
9525;BME280;15940;48.734;9.112;2023-04-10T12:08:38;96797.34;;;19.57;26.75
9525;BME280;15940;48.734;9.112;2023-04-10T12:11:06;96791.16;;;19.64;25.34
9525;BME280;15940;48.734;9.112;2023-04-10T12:13:34;96782.78;;;19.49;24.47
9525;BME280;15940;48.734;9.112;2023-04-10T12:16:04;96783.72;;;19.51;25.28
9525;BME280;15940;48.734;9.112;2023-04-10T12:18:32;96778.75;;;19.50;23.89
9525;BME280;15940;48.734;9.112;2023-04-10T12:21:00;96778.13;;;19.36;24.58
9525;BME280;15940;48.734;9.112;2023-04-10T12:23:30;96778.63;;;19.27;27.36
9525;BME280;15940;48.734;9.112;2023-04-10T12:26:12;96780.78;;;19.49;27.07
9525;BME280;15940;48.734;9.112;2023-04-10T12:28:41;96784.91;;;19.63;24.91
9525;BME280;15940;48.734;9.112;2023-04-10T12:31:15;96775.13;;;19.55;24.19
9525;BME280;15940;48.734;9.112;2023-04-10T12:33:44;96767.84;;;19.57;24.84
9525;BME280;15940;48.734;9.112;2023-04-10T12:36:21;96776.31;;;19.38;23.90
9525;BME280;15940;48.734;9.112;2023-04-10T12:38:49;96774.97;;;19.32;23.28
9525;BME280;15940;48.734;9.112;2023-04-10T12:41:21;96770.16;;;19.17;23.82
9525;BME280;15940;48.734;9.112;2023-04-10T12:43:49;96764.69;;;18.75;25.66
9525;BME280;15940;48.734;9.112;2023-04-10T12:46:25;96764.44;;;18.66;23.51
9525;BME280;15940;48.734;9.112;2023-04-10T12:48:52;96761.28;;;18.62;23.38
9525;BME280;15940;48.734;9.112;2023-04-10T12:51:19;96752.25;;;18.95;25.08
9525;BME280;15940;48.734;9.112;2023-04-10T12:53:46;96756.13;;;18.79;24.48
9525;BME280;15940;48.734;9.112;2023-04-10T12:56:14;96739.75;;;18.87;26.00
9525;BME280;15940;48.734;9.112;2023-04-10T12:58:42;96738.53;;;18.95;26.03
9525;BME280;15940;48.734;9.112;2023-04-10T13:01:10;96740.72;;;18.55;26.81
9525;BME280;15940;48.734;9.112;2023-04-10T13:03:39;96744.97;;;18.77;25.37
9525;BME280;15940;48.734;9.112;2023-04-10T13:06:07;96739.63;;;18.71;26.68
9525;BME280;15940;48.734;9.112;2023-04-10T13:08:34;96746.34;;;18.49;25.55
9525;BME280;15940;48.734;9.112;2023-04-10T13:11:01;96742.41;;;18.58;26.59
9525;BME280;15940;48.734;9.112;2023-04-10T13:13:30;96735.06;;;18.74;26.71
9525;BME280;15940;48.734;9.112;2023-04-10T13:15:57;96725.03;;;18.76;25.73
9525;BME280;15940;48.734;9.112;2023-04-10T13:18:24;96724.28;;;19.04;25.46
9525;BME280;15940;48.734;9.112;2023-04-10T13:20:51;96717.63;;;19.21;26.08
9525;BME280;15940;48.734;9.112;2023-04-10T13:23:18;96715.72;;;19.08;27.67
9525;BME280;15940;48.734;9.112;2023-04-10T13:25:45;96715.84;;;19.31;27.20
9525;BME280;15940;48.734;9.112;2023-04-10T13:28:12;96717.13;;;19.30;27.78
9525;BME280;15940;48.734;9.112;2023-04-10T13:30:42;96719.91;;;19.37;26.32
9525;BME280;15940;48.734;9.112;2023-04-10T13:33:09;96719.81;;;19.22;26.31